createdAt,value
2023-03-20T00:01:41.303Z,83.01
2023-03-20T00:04:10.736Z,82.60
2023-03-20T00:06:38.049Z,82.91
2023-03-20T00:09:06.956Z,82.24
2023-03-20T00:11:36.223Z,82.01
2023-03-20T00:14:05.939Z,82.47
2023-03-20T00:16:34.682Z,82.70
2023-03-20T00:19:03.871Z,82.27
2023-03-20T00:21:31.470Z,83.04
2023-03-20T00:23:58.803Z,83.18
2023-03-20T00:26:29.747Z,83.08
2023-03-20T00:28:57.747Z,83.02
2023-03-20T00:31:26.594Z,84.88
2023-03-20T00:33:54.536Z,83.05
2023-03-20T00:36:23.199Z,84.99
2023-03-20T00:38:50.464Z,84.46
2023-03-20T00:41:26.356Z,84.48
2023-03-20T00:43:55.339Z,84.45
2023-03-20T00:46:22.731Z,84.60
2023-03-20T00:48:50.699Z,85.28
2023-03-20T00:51:18.278Z,86.27
2023-03-20T00:53:46.904Z,86.11
2023-03-20T00:56:29.795Z,85.92
2023-03-20T00:58:57.781Z,86.89
2023-03-20T01:01:25.089Z,87.18
2023-03-20T01:03:52.615Z,87.71
2023-03-20T01:06:19.890Z,87.29
2023-03-20T01:08:48.805Z,87.61
2023-03-20T01:11:17.816Z,87.44
2023-03-20T01:13:45.222Z,87.87
2023-03-20T01:16:19.981Z,86.89
2023-03-20T01:18:47.305Z,86.71
2023-03-20T01:21:14.616Z,87.16
2023-03-20T01:23:42.604Z,86.79
2023-03-20T01:26:19.903Z,86.58
2023-03-20T01:28:47.524Z,86.30
2023-03-20T01:31:15.200Z,85.69
2023-03-20T01:33:42.521Z,84.79
2023-03-20T01:36:11.719Z,85.23
2023-03-20T01:38:39.352Z,85.77
2023-03-20T01:41:08.475Z,85.53
2023-03-20T01:43:37.084Z,85.49
2023-03-20T01:46:14.486Z,84.43
2023-03-20T01:48:57.757Z,84.55
2023-03-20T01:51:25.963Z,84.65
2023-03-20T01:53:55.211Z,83.94
2023-03-20T01:56:22.506Z,84.45
2023-03-20T01:58:54.451Z,84.16
2023-03-20T02:01:21.750Z,84.58
2023-03-20T02:03:51.820Z,84.57
2023-03-20T02:06:21.882Z,85.42
2023-03-20T02:08:50.263Z,85.57
2023-03-20T02:11:18.734Z,85.30
2023-03-20T02:13:47.160Z,85.63
2023-03-20T02:16:16.385Z,85.59
2023-03-20T02:18:44.767Z,86.74
2023-03-20T02:21:24.375Z,86.33
2023-03-20T02:24:27.441Z,85.85
2023-03-20T02:27:03.757Z,86.02
2023-03-20T02:29:50.641Z,86.90
2023-03-20T02:32:32.832Z,86.42
2023-03-20T02:35:13.980Z,86.80
2023-03-20T02:37:50.527Z,86.46
2023-03-20T02:40:22.589Z,86.88
2023-03-20T02:42:55.104Z,86.77
2023-03-20T02:45:27.075Z,86.79
2023-03-20T02:47:57.371Z,86.96
2023-03-20T02:50:29.722Z,86.22
2023-03-20T02:53:00.196Z,85.19
2023-03-20T02:55:32.855Z,84.81
2023-03-20T02:58:04.182Z,85.42
2023-03-20T03:00:35.556Z,85.72
2023-03-20T03:03:06.881Z,85.89
2023-03-20T03:05:37.849Z,85.41
2023-03-20T03:08:07.857Z,84.89
2023-03-20T03:10:37.317Z,86.09
2023-03-20T03:13:06.776Z,85.59
2023-03-20T03:15:36.309Z,86.19
2023-03-20T03:18:06.403Z,86.69
2023-03-20T03:20:35.952Z,86.46
2023-03-20T03:23:03.478Z,86.42
2023-03-20T03:25:34.653Z,86.65
2023-03-20T03:28:04.902Z,87.04
2023-03-20T03:30:34.067Z,86.86
2023-03-20T03:33:08.211Z,87.30
2023-03-20T03:35:36.079Z,88.02
2023-03-20T03:38:06.639Z,87.77
2023-03-20T03:40:38.169Z,87.73
2023-03-20T03:43:08.725Z,87.84
2023-03-20T03:45:39.094Z,87.69
2023-03-20T03:48:08.462Z,87.63
2023-03-20T03:50:38.689Z,87.96
2023-03-20T03:53:08.951Z,87.67
2023-03-20T03:55:40.582Z,87.91
2023-03-20T03:58:10.595Z,87.42
2023-03-20T04:00:38.880Z,88.75
2023-03-20T04:03:07.226Z,88.60
2023-03-20T04:05:37.435Z,88.71
2023-03-20T04:08:05.640Z,89.18
2023-03-20T04:10:32.938Z,89.27
2023-03-20T04:13:01.646Z,88.84
2023-03-20T04:15:29.018Z,88.36
2023-03-20T04:17:56.290Z,89.06
2023-03-20T04:20:23.630Z,88.72
2023-03-20T04:22:50.891Z,88.68
2023-03-20T04:25:19.258Z,89.33
2023-03-20T04:27:46.833Z,88.73
2023-03-20T04:30:15.615Z,89.24
2023-03-20T04:32:42.990Z,89.86
2023-03-20T04:35:10.450Z,88.76
2023-03-20T04:37:37.724Z,87.58
2023-03-20T04:40:05.370Z,88.29
2023-03-20T04:42:32.691Z,88.17
2023-03-20T04:44:59.971Z,87.87
2023-03-20T04:47:28.569Z,88.58
2023-03-20T04:49:55.820Z,88.50
2023-03-20T04:52:23.092Z,88.31
2023-03-20T04:54:50.387Z,89.21
2023-03-20T04:57:17.836Z,89.96
2023-03-20T04:59:45.218Z,88.43
2023-03-20T05:02:14.879Z,88.53
2023-03-20T05:04:43.730Z,88.51
2023-03-20T05:07:11.288Z,89.26
2023-03-20T05:09:38.557Z,89.97
2023-03-20T05:12:06.203Z,89.87
2023-03-20T05:14:33.494Z,89.79
2023-03-20T05:17:01.262Z,89.12
2023-03-20T05:19:28.581Z,89.34
2023-03-20T05:21:57.152Z,89.05
2023-03-20T05:24:24.393Z,90.25
2023-03-20T05:26:51.802Z,90.21
2023-03-20T05:29:19.087Z,90.32
2023-03-20T05:31:46.386Z,90.52
2023-03-20T05:34:13.723Z,90.20
2023-03-20T05:36:41.343Z,90.07
2023-03-20T05:39:09.922Z,90.63
2023-03-20T05:41:37.333Z,91.39
2023-03-20T05:44:04.608Z,91.03
2023-03-20T05:46:31.910Z,90.69
2023-03-20T05:48:59.253Z,90.40
2023-03-20T05:51:27.092Z,90.93
2023-03-20T05:53:54.367Z,91.12
2023-03-20T05:56:23.063Z,90.33
2023-03-20T05:58:51.936Z,90.96
2023-03-20T06:01:21.496Z,90.85
2023-03-20T06:03:48.894Z,90.59
2023-03-20T06:06:16.493Z,90.97
2023-03-20T06:08:44.610Z,91.31
2023-03-20T06:11:12.190Z,91.05
2023-03-20T06:13:40.825Z,90.53
2023-03-20T06:16:08.932Z,89.95
2023-03-20T06:18:36.280Z,90.55
2023-03-20T06:21:05.806Z,90.66
2023-03-20T06:23:33.125Z,90.53
2023-03-20T06:26:00.405Z,89.78
2023-03-20T06:28:27.661Z,88.97
2023-03-20T06:30:57.178Z,88.93
2023-03-20T06:33:24.783Z,87.22
2023-03-20T06:35:52.882Z,85.40
2023-03-20T06:38:20.393Z,83.95
2023-03-20T06:40:47.705Z,83.72
2023-03-20T06:43:14.965Z,83.21
2023-03-20T06:45:42.355Z,82.53
2023-03-20T06:48:11.174Z,81.82
2023-03-20T06:50:38.449Z,81.87
2023-03-20T06:53:06.662Z,81.34
2023-03-20T06:55:34.099Z,80.77
2023-03-20T06:58:01.452Z,80.70
2023-03-20T07:00:29.687Z,79.39
2023-03-20T07:02:56.956Z,78.72
2023-03-20T07:05:26.131Z,78.05
2023-03-20T07:07:53.797Z,76.18
2023-03-20T07:10:21.132Z,75.80
2023-03-20T07:12:48.427Z,76.24
2023-03-20T07:15:15.791Z,75.46
2023-03-20T07:17:43.299Z,75.32
2023-03-20T07:20:11.331Z,74.39
2023-03-20T07:22:41.521Z,73.69
2023-03-20T07:25:09.555Z,74.05
2023-03-20T07:27:37.685Z,74.88
2023-03-20T07:30:06.112Z,73.81
2023-03-20T07:32:33.499Z,73.77
2023-03-20T07:35:00.959Z,72.77
2023-03-20T07:37:28.213Z,72.03
2023-03-20T07:39:56.781Z,72.60
2023-03-20T07:42:24.039Z,73.54
2023-03-20T07:44:51.534Z,73.67
2023-03-20T07:47:18.872Z,73.47
2023-03-20T07:49:46.682Z,73.92
2023-03-20T07:52:13.951Z,74.87
2023-03-20T07:54:41.228Z,73.88
2023-03-20T07:57:09.841Z,74.23
2023-03-20T07:59:37.120Z,74.85
2023-03-20T08:02:04.429Z,75.16
2023-03-20T08:04:31.770Z,75.02
2023-03-20T08:06:59.229Z,76.49
2023-03-20T08:09:26.979Z,77.19
2023-03-20T08:11:54.233Z,76.88
2023-03-20T08:14:22.913Z,77.15
2023-03-20T08:17:02.343Z,77.43
2023-03-20T08:19:38.250Z,77.48
2023-03-20T08:22:05.570Z,77.64
2023-03-20T08:24:32.954Z,78.01
2023-03-20T08:27:00.284Z,77.58
2023-03-20T08:29:28.947Z,77.96
2023-03-20T08:31:57.725Z,76.96
2023-03-20T08:34:26.318Z,77.53
2023-03-20T08:36:53.687Z,77.83
2023-03-20T08:39:21.771Z,77.52
2023-03-20T08:41:49.072Z,77.74
2023-03-20T08:44:16.399Z,77.01
2023-03-20T08:46:46.435Z,76.86
2023-03-20T08:49:13.802Z,76.87
2023-03-20T08:51:41.250Z,77.46
2023-03-20T08:54:08.526Z,76.02
2023-03-20T08:56:35.826Z,76.05
2023-03-20T08:59:03.693Z,76.94
2023-03-20T09:01:47.991Z,77.21
2023-03-20T09:04:17.247Z,75.66
2023-03-20T09:06:44.499Z,75.36
2023-03-20T09:09:15.655Z,76.61
2023-03-20T09:11:42.930Z,75.71
2023-03-20T09:14:10.584Z,76.49
2023-03-20T09:16:38.018Z,75.57
2023-03-20T09:19:06.054Z,75.08
2023-03-20T09:21:34.734Z,73.00
2023-03-20T09:24:02.049Z,72.74
2023-03-20T09:26:29.322Z,72.77
2023-03-20T09:28:56.603Z,72.84
2023-03-20T09:31:23.998Z,73.41
2023-03-20T09:33:51.290Z,73.36
2023-03-20T09:36:18.681Z,74.16
2023-03-20T09:38:47.444Z,73.62
2023-03-20T09:41:18.902Z,73.68
2023-03-20T09:43:52.270Z,72.14
2023-03-20T09:46:24.722Z,73.17
2023-03-20T09:48:55.860Z,72.15
2023-03-20T09:51:29.495Z,72.07
2023-03-20T09:54:01.462Z,72.98
2023-03-20T09:56:30.557Z,72.54
2023-03-20T09:58:58.860Z,72.26
2023-03-20T10:01:28.189Z,72.25
2023-03-20T10:03:57.554Z,72.55
2023-03-20T10:06:25.486Z,72.44
2023-03-20T10:08:52.994Z,71.66
2023-03-20T10:11:32.140Z,70.05
2023-03-20T10:14:02.988Z,70.75
2023-03-20T10:16:38.108Z,70.63
2023-03-20T10:19:08.804Z,69.42
2023-03-20T10:21:40.579Z,69.50
2023-03-20T10:24:15.793Z,68.22
2023-03-20T10:26:44.593Z,67.44
2023-03-20T10:29:17.720Z,67.79
2023-03-20T10:31:48.410Z,67.85
2023-03-20T10:34:25.831Z,66.99
2023-03-20T10:36:57.795Z,65.15
2023-03-20T10:39:33.853Z,66.57
2023-03-20T10:42:04.152Z,67.34
2023-03-20T10:44:33.901Z,66.87
2023-03-20T10:47:02.505Z,66.54
2023-03-20T10:49:32.307Z,66.80
2023-03-20T10:52:02.118Z,67.16
2023-03-20T10:54:39.162Z,68.13
2023-03-20T10:57:13.478Z,68.97
2023-03-20T10:59:43.216Z,69.09
2023-03-20T11:02:12.211Z,69.33
2023-03-20T11:04:39.556Z,70.83
2023-03-20T11:07:13.860Z,71.82
2023-03-20T11:09:41.599Z,73.09
2023-03-20T11:12:16.491Z,72.46
2023-03-20T11:14:43.808Z,71.50
2023-03-20T11:17:11.652Z,70.39
2023-03-20T11:19:40.118Z,69.62
2023-03-20T11:22:09.030Z,70.09
2023-03-20T11:24:37.931Z,69.95
2023-03-20T11:27:06.441Z,68.96
2023-03-20T11:29:36.079Z,68.39
2023-03-20T11:32:08.255Z,69.27
2023-03-20T11:34:37.785Z,69.66
2023-03-20T11:37:10.462Z,69.04
2023-03-20T11:39:39.968Z,69.98
2023-03-20T11:42:22.385Z,69.85
2023-03-20T11:44:57.389Z,70.13
2023-03-20T11:47:27.302Z,70.96
2023-03-20T11:49:56.023Z,69.55
2023-03-20T11:52:25.914Z,69.28
2023-03-20T11:54:55.319Z,69.60
2023-03-20T11:57:31.732Z,69.13
2023-03-20T12:00:02.044Z,69.80
2023-03-20T12:02:29.510Z,70.42
2023-03-20T12:05:00.363Z,70.34
2023-03-20T12:07:30.610Z,69.58
2023-03-20T12:09:59.259Z,69.26
2023-03-20T12:12:35.151Z,69.44
2023-03-20T12:15:07.852Z,70.20
2023-03-20T12:17:39.292Z,70.58
2023-03-20T12:20:13.050Z,71.20
2023-03-20T12:22:43.837Z,70.88
2023-03-20T12:25:18.931Z,71.07
2023-03-20T12:27:48.931Z,70.27
2023-03-20T12:30:20.900Z,70.00
2023-03-20T12:32:54.225Z,70.09
2023-03-20T12:35:26.068Z,70.30
2023-03-20T12:37:53.339Z,72.16
2023-03-20T12:40:27.850Z,71.48
2023-03-20T12:43:03.000Z,71.43
2023-03-20T12:45:33.920Z,72.09
2023-03-20T12:48:06.145Z,72.11
2023-03-20T12:50:35.662Z,73.01
2023-03-20T12:53:20.816Z,72.74
2023-03-20T12:55:56.517Z,73.23
2023-03-20T12:58:28.087Z,71.80
2023-03-20T13:01:01.472Z,73.10
2023-03-20T13:03:38.507Z,73.22
2023-03-20T13:06:10.780Z,72.21
2023-03-20T13:09:01.382Z,71.34
2023-03-20T13:11:32.033Z,70.69
2023-03-20T13:14:02.473Z,70.99
2023-03-20T13:16:38.326Z,70.07
2023-03-20T13:19:08.507Z,69.26
2023-03-20T13:21:40.295Z,70.55
2023-03-20T13:24:23.438Z,71.26
2023-03-20T13:26:54.468Z,70.99
2023-03-20T13:29:28.588Z,69.86
2023-03-20T13:32:04.422Z,70.24
2023-03-20T13:34:39.197Z,70.52
2023-03-20T13:37:25.856Z,69.04
2023-03-20T13:39:59.792Z,70.31
2023-03-20T13:42:30.589Z,71.61
2023-03-20T13:45:05.842Z,70.78
2023-03-20T13:47:37.141Z,72.55
2023-03-20T13:50:25.103Z,72.19
2023-03-20T13:52:57.352Z,71.30
2023-03-20T13:55:27.993Z,71.12
2023-03-20T13:58:04.525Z,71.30
2023-03-20T14:00:34.407Z,71.90
2023-03-20T14:03:13.970Z,73.50
2023-03-20T14:05:42.698Z,73.79
2023-03-20T14:08:22.230Z,73.90
2023-03-20T14:10:49.613Z,74.63
2023-03-20T14:13:19.603Z,75.13
2023-03-20T14:15:50.163Z,75.25
2023-03-20T14:18:19.421Z,74.38
2023-03-20T14:20:53.227Z,73.96
2023-03-20T14:23:21.700Z,74.30
2023-03-20T14:25:49.503Z,74.59
2023-03-20T14:28:28.203Z,75.00
2023-03-20T14:31:10.482Z,75.86
2023-03-20T14:33:42.792Z,75.66
2023-03-20T14:36:19.300Z,76.10
2023-03-20T14:38:54.295Z,77.27
2023-03-20T14:41:27.282Z,77.11
2023-03-20T14:44:01.954Z,77.82
2023-03-20T14:46:35.258Z,81.21
2023-03-20T14:49:16.828Z,82.38
2023-03-20T14:51:45.920Z,84.62
2023-03-20T14:54:27.124Z,85.16
2023-03-20T14:56:54.667Z,86.82
2023-03-20T14:59:23.328Z,86.27
2023-03-20T15:01:57.295Z,88.67
2023-03-20T15:04:29.261Z,87.70
2023-03-20T15:06:58.777Z,88.36
2023-03-20T15:09:27.900Z,88.54
2023-03-20T15:11:59.564Z,89.79
2023-03-20T15:14:28.338Z,91.97
2023-03-20T15:16:59.282Z,93.43
2023-03-20T15:19:28.620Z,94.80
2023-03-20T15:21:56.528Z,95.19
2023-03-20T15:24:24.362Z,94.15
2023-03-20T15:26:53.355Z,94.65
2023-03-20T15:29:21.105Z,97.30
2023-03-20T15:32:06.469Z,98.17
2023-03-20T15:34:41.837Z,98.31
2023-03-20T15:37:13.045Z,96.65
2023-03-20T15:39:43.251Z,96.48
2023-03-20T15:42:13.381Z,95.49
2023-03-20T15:44:41.642Z,92.40
2023-03-20T15:47:12.845Z,97.13
2023-03-20T15:49:42.433Z,95.92
2023-03-20T15:52:23.105Z,95.99
2023-03-20T15:54:50.602Z,95.06
2023-03-20T15:57:21.194Z,94.97
2023-03-20T15:59:48.503Z,93.58
2023-03-20T16:02:19.590Z,96.20
2023-03-20T16:04:49.811Z,99.69
2023-03-20T16:07:21.188Z,100.00
2023-03-20T16:09:50.069Z,97.89
2023-03-20T16:12:18.346Z,97.67
2023-03-20T16:14:46.856Z,96.65
2023-03-20T16:17:14.566Z,95.48
2023-03-20T16:19:42.086Z,95.95
2023-03-20T16:22:15.968Z,97.62
2023-03-20T16:24:46.399Z,97.35
2023-03-20T16:27:15.554Z,96.96
2023-03-20T16:29:44.144Z,96.47
2023-03-20T16:32:19.358Z,96.04
2023-03-20T16:34:49.660Z,96.01
2023-03-20T16:37:25.501Z,96.88
2023-03-20T16:40:03.485Z,95.91
2023-03-20T16:42:31.057Z,96.20
2023-03-20T16:44:59.381Z,96.66
2023-03-20T16:47:34.640Z,97.47
2023-03-20T16:50:12.941Z,97.10
2023-03-20T16:52:42.432Z,97.35
2023-03-20T16:55:14.594Z,97.42
2023-03-20T16:57:44.574Z,98.28
2023-03-20T17:00:20.674Z,97.47
2023-03-20T17:02:50.602Z,96.90
2023-03-20T17:05:19.294Z,96.14
2023-03-20T17:07:50.587Z,95.98
2023-03-20T17:10:20.131Z,96.20
2023-03-20T17:12:48.474Z,96.55
2023-03-20T17:15:16.636Z,96.07
2023-03-20T17:17:44.488Z,95.07
2023-03-20T17:20:18.241Z,95.16
2023-03-20T17:22:45.894Z,96.22
2023-03-20T17:25:14.816Z,96.67
2023-03-20T17:27:42.169Z,97.18
2023-03-20T17:30:16.321Z,97.85
2023-03-20T17:32:43.649Z,97.25
2023-03-20T17:35:11.390Z,98.10
2023-03-20T17:37:38.753Z,97.73
2023-03-20T17:40:06.690Z,97.70
2023-03-20T17:42:35.317Z,97.03
2023-03-20T17:45:03.456Z,95.97
2023-03-20T17:47:31.352Z,95.68
2023-03-20T17:49:58.902Z,94.67
2023-03-20T17:52:27.319Z,94.70
2023-03-20T17:54:54.908Z,92.68
2023-03-20T17:57:23.299Z,91.99
2023-03-20T17:59:51.871Z,92.73
2023-03-20T18:02:19.618Z,92.82
2023-03-20T18:04:47.339Z,93.19
2023-03-20T18:07:15.062Z,93.80
2023-03-20T18:09:43.003Z,92.39
2023-03-20T18:12:11.056Z,90.80
2023-03-20T18:14:39.115Z,90.42
2023-03-20T18:17:08.039Z,91.08
2023-03-20T18:19:35.399Z,93.13
2023-03-20T18:22:03.631Z,93.86
2023-03-20T18:24:30.953Z,93.97
2023-03-20T18:26:59.027Z,94.57
2023-03-20T18:29:26.458Z,94.39
2023-03-20T18:31:53.837Z,95.92
2023-03-20T18:34:22.733Z,97.05
2023-03-20T18:36:50.077Z,96.16
2023-03-20T18:39:18.378Z,94.50
2023-03-20T18:41:45.691Z,95.23
2023-03-20T18:44:13.244Z,95.62
2023-03-20T18:46:41.108Z,94.84
2023-03-20T18:49:11.144Z,97.04
2023-03-20T18:51:39.704Z,96.86
2023-03-20T18:54:06.973Z,97.01
2023-03-20T18:56:36.860Z,94.79
2023-03-20T18:59:06.431Z,94.40
2023-03-20T19:01:34.171Z,92.19
2023-03-20T19:04:01.654Z,92.53
2023-03-20T19:06:29.964Z,95.71
2023-03-20T19:08:58.719Z,95.76
2023-03-20T19:11:26.272Z,96.04
2023-03-20T19:13:54.340Z,95.49
2023-03-20T19:16:26.644Z,95.39
2023-03-20T19:18:54.148Z,95.56
2023-03-20T19:21:25.986Z,96.29
2023-03-20T19:23:54.021Z,95.80
2023-03-20T19:26:24.435Z,95.81
2023-03-20T19:28:51.745Z,95.70
2023-03-20T19:31:19.448Z,95.55
2023-03-20T19:33:46.735Z,96.52
2023-03-20T19:36:22.096Z,96.03
2023-03-20T19:38:49.409Z,97.01
2023-03-20T19:41:16.702Z,96.85
2023-03-20T19:43:52.367Z,96.24
2023-03-20T19:46:38.245Z,95.95
2023-03-20T19:49:07.014Z,95.78
2023-03-20T19:51:34.383Z,96.58
2023-03-20T19:54:02.017Z,96.93
2023-03-20T19:56:29.314Z,96.82
2023-03-20T19:58:57.902Z,96.32
2023-03-20T20:01:25.681Z,96.75
2023-03-20T20:03:54.928Z,96.70
2023-03-20T20:06:29.503Z,97.79
2023-03-20T20:08:58.536Z,98.17
2023-03-20T20:11:26.022Z,97.79
2023-03-20T20:14:10.301Z,98.23
2023-03-20T20:16:42.845Z,98.38
2023-03-20T20:19:10.520Z,98.24
2023-03-20T20:24:25.376Z,98.21
2023-03-20T20:26:59.684Z,98.33
2023-03-20T20:29:34.537Z,98.88
2023-03-20T20:32:03.240Z,99.09
2023-03-20T20:40:06.751Z,99.72
2023-03-20T20:42:34.114Z,99.78
2023-03-20T20:45:01.403Z,99.74
2023-03-20T20:47:30.125Z,100.00
2023-03-20T20:49:57.762Z,100.00
2023-03-20T20:52:25.119Z,100.00
2023-03-20T20:54:52.408Z,100.00
2023-03-20T20:57:19.657Z,99.35
2023-03-20T20:59:47.360Z,98.83
2023-03-20T21:02:17.290Z,99.78
2023-03-20T21:04:46.201Z,100.00
2023-03-20T21:07:14.002Z,100.00
2023-03-20T21:09:41.814Z,100.00
2023-03-20T21:12:26.443Z,100.00
2023-03-20T21:14:58.742Z,100.00
2023-03-20T21:17:26.552Z,99.91
2023-03-20T21:19:55.659Z,100.00
2023-03-20T21:22:23.495Z,99.98
2023-03-20T21:24:52.029Z,100.00
2023-03-20T21:27:21.634Z,100.00
2023-03-20T21:29:50.038Z,100.00
2023-03-20T21:32:19.016Z,100.00
2023-03-20T21:34:46.542Z,100.00
2023-03-20T21:38:17.865Z,100.00
2023-03-20T21:40:04.100Z,100.00
2023-03-20T21:42:31.427Z,100.00
2023-03-20T21:45:53.449Z,100.00
2023-03-20T21:51:02.927Z,100.00
2023-03-20T21:54:20.773Z,100.00
2023-03-20T21:56:50.583Z,100.00
2023-03-20T22:02:05.886Z,100.00
2023-03-20T22:07:54.127Z,100.00
2023-03-20T22:13:58.785Z,100.00
2023-03-20T22:16:31.258Z,100.00
2023-03-20T22:25:04.807Z,100.00
2023-03-20T22:30:28.883Z,100.00
2023-03-20T22:36:16.311Z,100.00
2023-03-20T22:41:49.315Z,100.00
2023-03-20T22:44:33.949Z,100.00
2023-03-20T22:46:44.799Z,100.00
2023-03-20T22:49:12.840Z,100.00
2023-03-20T22:51:50.723Z,100.00
2023-03-20T22:54:27.736Z,100.00
2023-03-20T22:56:55.465Z,100.00
2023-03-20T22:59:24.092Z,100.00
2023-03-20T23:01:51.529Z,100.00
2023-03-20T23:04:18.878Z,100.00
2023-03-20T23:06:46.357Z,100.00
2023-03-20T23:09:15.729Z,100.00
2023-03-20T23:11:43.368Z,100.00
2023-03-20T23:14:20.527Z,100.00
2023-03-20T23:16:50.753Z,100.00
2023-03-20T23:19:18.151Z,100.00
2023-03-20T23:21:45.434Z,100.00
2023-03-20T23:24:12.695Z,100.00
2023-03-20T23:26:40.069Z,100.00
2023-03-20T23:29:07.669Z,100.00
2023-03-20T23:31:34.949Z,100.00
2023-03-20T23:34:03.582Z,100.00
2023-03-20T23:36:38.091Z,100.00
2023-03-20T23:39:05.748Z,100.00
2023-03-20T23:42:01.860Z,100.00
2023-03-20T23:44:20.355Z,100.00
2023-03-20T23:46:48.334Z,100.00
2023-03-20T23:49:17.321Z,100.00
2023-03-20T23:51:44.802Z,100.00
2023-03-20T23:54:12.653Z,100.00
2023-03-20T23:56:39.948Z,100.00
2023-03-20T23:59:18.701Z,100.00
